Terminal Aerodrome Forecast
Issued by NWS

Home | Current Version | Previous Version | Text Only | Print | Product List | Glossary On
Versions: 1 2 3 4 5 6 7 8 9 10 11 12 13 14
000
FTUS42 TJSJ 260522
TAFNCM
TAF
TNCM 260522Z 2606/2706 08010KT P6SM VCSH BKN018
     FM261000 10013KT P6SM FEW020
     FM262000 08008KT P6SM VCSH SCT018 BKN080=

USA.gov is the U.S. government's official web portal to all federal, state and local government web resources and services.